sensor_id;sensor_type;location;lat;lon;timestamp;temperature;humidity
15713;DHT22;7957;51.608;6.916;2023-01-29T00:01:35;-0.70;99.90
15713;DHT22;7957;51.608;6.916;2023-01-29T00:04:04;-0.70;99.90
15713;DHT22;7957;51.608;6.916;2023-01-29T00:06:31;-0.70;99.90
15713;DHT22;7957;51.608;6.916;2023-01-29T00:08:58;-0.70;99.90
15713;DHT22;7957;51.608;6.916;2023-01-29T00:11:25;-0.70;99.90
15713;DHT22;7957;51.608;6.916;2023-01-29T00:13:52;-0.70;99.90
15713;DHT22;7957;51.608;6.916;2023-01-29T00:16:19;-0.80;99.90
15713;DHT22;7957;51.608;6.916;2023-01-29T00:18:46;-0.80;99.90
15713;DHT22;7957;51.608;6.916;2023-01-29T00:21:15;-0.80;99.90
15713;DHT22;7957;51.608;6.916;2023-01-29T00:23:43;-0.80;99.90
15713;DHT22;7957;51.608;6.916;2023-01-29T00:26:11;-0.80;99.90
15713;DHT22;7957;51.608;6.916;2023-01-29T00:28:38;-0.80;99.90
15713;DHT22;7957;51.608;6.916;2023-01-29T00:31:09;-0.80;99.90
15713;DHT22;7957;51.608;6.916;2023-01-29T00:33:36;-0.80;99.90
15713;DHT22;7957;51.608;6.916;2023-01-29T00:36:04;-0.90;99.90
15713;DHT22;7957;51.608;6.916;2023-01-29T00:38:34;-0.90;99.90
15713;DHT22;7957;51.608;6.916;2023-01-29T00:41:05;-0.90;99.90
15713;DHT22;7957;51.608;6.916;2023-01-29T00:43:49;-0.90;99.90
15713;DHT22;7957;51.608;6.916;2023-01-29T00:46:34;-0.90;99.90
15713;DHT22;7957;51.608;6.916;2023-01-29T00:49:00;-0.90;99.90
15713;DHT22;7957;51.608;6.916;2023-01-29T00:51:27;-0.90;99.90
15713;DHT22;7957;51.608;6.916;2023-01-29T00:53:56;-0.90;99.90
15713;DHT22;7957;51.608;6.916;2023-01-29T00:56:23;-0.90;99.90
15713;DHT22;7957;51.608;6.916;2023-01-29T00:58:50;-0.90;99.90
15713;DHT22;7957;51.608;6.916;2023-01-29T01:01:17;-0.90;99.90
15713;DHT22;7957;51.608;6.916;2023-01-29T01:04:04;-0.90;99.90
15713;DHT22;7957;51.608;6.916;2023-01-29T01:06:30;-0.90;99.90
15713;DHT22;7957;51.608;6.916;2023-01-29T01:08:58;-0.80;99.90
15713;DHT22;7957;51.608;6.916;2023-01-29T01:11:43;-0.80;99.90
15713;DHT22;7957;51.608;6.916;2023-01-29T01:14:09;-0.80;99.90
15713;DHT22;7957;51.608;6.916;2023-01-29T01:16:36;-0.80;99.90
15713;DHT22;7957;51.608;6.916;2023-01-29T01:19:03;-0.80;99.90
15713;DHT22;7957;51.608;6.916;2023-01-29T01:21:31;-0.80;99.90
15713;DHT22;7957;51.608;6.916;2023-01-29T01:23:59;-0.80;99.90
15713;DHT22;7957;51.608;6.916;2023-01-29T01:26:30;-0.80;99.90
15713;DHT22;7957;51.608;6.916;2023-01-29T01:28:57;-0.80;99.90
15713;DHT22;7957;51.608;6.916;2023-01-29T01:31:24;-0.80;99.90
15713;DHT22;7957;51.608;6.916;2023-01-29T01:33:51;-0.80;99.90
15713;DHT22;7957;51.608;6.916;2023-01-29T01:36:18;-0.80;99.90
15713;DHT22;7957;51.608;6.916;2023-01-29T01:38:46;-0.80;99.90
15713;DHT22;7957;51.608;6.916;2023-01-29T01:41:16;-0.80;99.90
15713;DHT22;7957;51.608;6.916;2023-01-29T01:43:48;-0.80;99.90
15713;DHT22;7957;51.608;6.916;2023-01-29T01:46:16;-0.80;99.90
15713;DHT22;7957;51.608;6.916;2023-01-29T01:48:44;-0.80;99.90
15713;DHT22;7957;51.608;6.916;2023-01-29T01:51:12;-0.80;99.90
15713;DHT22;7957;51.608;6.916;2023-01-29T01:53:43;-0.80;99.90
15713;DHT22;7957;51.608;6.916;2023-01-29T01:56:17;-0.80;99.90
15713;DHT22;7957;51.608;6.916;2023-01-29T01:58:48;-0.80;99.90
15713;DHT22;7957;51.608;6.916;2023-01-29T02:01:16;-0.80;99.90
15713;DHT22;7957;51.608;6.916;2023-01-29T02:03:55;-0.80;99.90
15713;DHT22;7957;51.608;6.916;2023-01-29T02:06:40;-0.80;99.90
15713;DHT22;7957;51.608;6.916;2023-01-29T02:09:28;-0.80;99.90
15713;DHT22;7957;51.608;6.916;2023-01-29T02:12:09;-0.80;99.90
15713;DHT22;7957;51.608;6.916;2023-01-29T02:14:38;-0.80;99.90
15713;DHT22;7957;51.608;6.916;2023-01-29T02:17:05;-0.80;99.90
15713;DHT22;7957;51.608;6.916;2023-01-29T02:19:41;-0.80;99.90
15713;DHT22;7957;51.608;6.916;2023-01-29T02:22:25;-0.80;99.90
15713;DHT22;7957;51.608;6.916;2023-01-29T02:25:22;-0.80;99.90
15713;DHT22;7957;51.608;6.916;2023-01-29T02:30:52;-0.90;99.90
15713;DHT22;7957;51.608;6.916;2023-01-29T02:33:31;-0.90;99.90
15713;DHT22;7957;51.608;6.916;2023-01-29T02:36:08;-0.90;99.90
15713;DHT22;7957;51.608;6.916;2023-01-29T02:38:40;-0.90;99.90
15713;DHT22;7957;51.608;6.916;2023-01-29T02:41:13;-0.90;99.90
15713;DHT22;7957;51.608;6.916;2023-01-29T02:43:45;-0.90;99.90
15713;DHT22;7957;51.608;6.916;2023-01-29T02:46:17;-0.90;99.90
15713;DHT22;7957;51.608;6.916;2023-01-29T02:48:53;-0.90;99.90
15713;DHT22;7957;51.608;6.916;2023-01-29T02:51:24;-0.90;99.90
15713;DHT22;7957;51.608;6.916;2023-01-29T02:53:58;-1.00;99.90
15713;DHT22;7957;51.608;6.916;2023-01-29T02:56:29;-0.90;99.90
15713;DHT22;7957;51.608;6.916;2023-01-29T02:59:03;-1.00;99.90
15713;DHT22;7957;51.608;6.916;2023-01-29T03:01:36;-1.00;99.90
15713;DHT22;7957;51.608;6.916;2023-01-29T03:04:08;-1.00;99.90
15713;DHT22;7957;51.608;6.916;2023-01-29T03:06:39;-1.00;99.90
15713;DHT22;7957;51.608;6.916;2023-01-29T03:09:10;-1.00;99.90
15713;DHT22;7957;51.608;6.916;2023-01-29T03:11:43;-1.10;99.90
15713;DHT22;7957;51.608;6.916;2023-01-29T03:14:15;-1.10;99.90
15713;DHT22;7957;51.608;6.916;2023-01-29T03:16:46;-1.10;99.90
15713;DHT22;7957;51.608;6.916;2023-01-29T03:19:17;-1.10;99.90
15713;DHT22;7957;51.608;6.916;2023-01-29T03:21:49;-1.10;99.90
15713;DHT22;7957;51.608;6.916;2023-01-29T03:24:25;-1.10;99.90
15713;DHT22;7957;51.608;6.916;2023-01-29T03:27:13;-1.20;99.90
15713;DHT22;7957;51.608;6.916;2023-01-29T03:30:03;-1.20;99.90
15713;DHT22;7957;51.608;6.916;2023-01-29T03:32:50;-1.20;99.90
15713;DHT22;7957;51.608;6.916;2023-01-29T03:35:20;-1.20;99.90
15713;DHT22;7957;51.608;6.916;2023-01-29T03:38:01;-1.20;99.90
15713;DHT22;7957;51.608;6.916;2023-01-29T03:40:34;-1.20;99.90
15713;DHT22;7957;51.608;6.916;2023-01-29T03:43:08;-1.20;99.90
15713;DHT22;7957;51.608;6.916;2023-01-29T03:45:46;-1.20;99.90
15713;DHT22;7957;51.608;6.916;2023-01-29T03:48:24;-1.20;99.90
15713;DHT22;7957;51.608;6.916;2023-01-29T03:51:00;-1.10;99.90
15713;DHT22;7957;51.608;6.916;2023-01-29T03:53:38;-1.20;99.90
15713;DHT22;7957;51.608;6.916;2023-01-29T03:56:16;-1.10;99.90
15713;DHT22;7957;51.608;6.916;2023-01-29T03:58:47;-1.10;99.90
15713;DHT22;7957;51.608;6.916;2023-01-29T04:01:21;-1.10;99.90
15713;DHT22;7957;51.608;6.916;2023-01-29T04:03:54;-1.10;99.90
15713;DHT22;7957;51.608;6.916;2023-01-29T04:06:23;-1.10;99.90
15713;DHT22;7957;51.608;6.916;2023-01-29T04:08:55;-1.10;99.90
15713;DHT22;7957;51.608;6.916;2023-01-29T04:11:24;-1.00;99.90
15713;DHT22;7957;51.608;6.916;2023-01-29T04:13:53;-1.10;99.90
15713;DHT22;7957;51.608;6.916;2023-01-29T04:16:24;-1.00;99.90
15713;DHT22;7957;51.608;6.916;2023-01-29T04:18:53;-1.00;99.90
15713;DHT22;7957;51.608;6.916;2023-01-29T04:21:20;-1.00;99.90
15713;DHT22;7957;51.608;6.916;2023-01-29T04:23:47;-1.00;99.90
15713;DHT22;7957;51.608;6.916;2023-01-29T04:26:32;-1.00;99.90
15713;DHT22;7957;51.608;6.916;2023-01-29T04:29:14;-0.90;99.90
15713;DHT22;7957;51.608;6.916;2023-01-29T04:31:51;-0.90;99.90
15713;DHT22;7957;51.608;6.916;2023-01-29T04:34:22;-0.90;99.90
15713;DHT22;7957;51.608;6.916;2023-01-29T04:36:58;-0.90;99.90
15713;DHT22;7957;51.608;6.916;2023-01-29T04:39:32;-0.90;99.90
15713;DHT22;7957;51.608;6.916;2023-01-29T04:42:07;-0.90;99.90
15713;DHT22;7957;51.608;6.916;2023-01-29T04:44:41;-0.90;99.90
15713;DHT22;7957;51.608;6.916;2023-01-29T04:47:18;-0.90;99.90
15713;DHT22;7957;51.608;6.916;2023-01-29T04:49:51;-0.80;99.90
15713;DHT22;7957;51.608;6.916;2023-01-29T04:52:23;-0.80;99.90
15713;DHT22;7957;51.608;6.916;2023-01-29T04:54:59;-0.80;99.90
15713;DHT22;7957;51.608;6.916;2023-01-29T04:57:34;-0.80;99.90
15713;DHT22;7957;51.608;6.916;2023-01-29T05:00:06;-0.80;99.90
15713;DHT22;7957;51.608;6.916;2023-01-29T05:02:40;-0.80;99.90
15713;DHT22;7957;51.608;6.916;2023-01-29T05:05:10;-0.80;99.90
15713;DHT22;7957;51.608;6.916;2023-01-29T05:07:38;-0.70;99.90
15713;DHT22;7957;51.608;6.916;2023-01-29T05:10:09;-0.70;99.90
15713;DHT22;7957;51.608;6.916;2023-01-29T05:12:38;-0.70;99.90
15713;DHT22;7957;51.608;6.916;2023-01-29T05:15:10;-0.70;99.90
15713;DHT22;7957;51.608;6.916;2023-01-29T05:17:39;-0.70;99.90
15713;DHT22;7957;51.608;6.916;2023-01-29T05:20:10;-0.70;99.90
15713;DHT22;7957;51.608;6.916;2023-01-29T05:22:38;-0.60;99.90
15713;DHT22;7957;51.608;6.916;2023-01-29T05:25:19;-0.60;99.90
15713;DHT22;7957;51.608;6.916;2023-01-29T05:27:48;-0.60;99.90
15713;DHT22;7957;51.608;6.916;2023-01-29T05:30:32;-0.60;99.90
15713;DHT22;7957;51.608;6.916;2023-01-29T05:33:02;-0.60;99.90
15713;DHT22;7957;51.608;6.916;2023-01-29T05:35:29;-0.60;99.90
15713;DHT22;7957;51.608;6.916;2023-01-29T05:37:56;-0.60;99.90
15713;DHT22;7957;51.608;6.916;2023-01-29T05:40:23;-0.60;99.90
15713;DHT22;7957;51.608;6.916;2023-01-29T05:42:50;-0.60;99.90
15713;DHT22;7957;51.608;6.916;2023-01-29T05:45:18;-0.60;99.90
15713;DHT22;7957;51.608;6.916;2023-01-29T05:47:45;-0.60;99.90
15713;DHT22;7957;51.608;6.916;2023-01-29T05:50:14;-0.60;99.90
15713;DHT22;7957;51.608;6.916;2023-01-29T05:52:41;-0.60;99.90
15713;DHT22;7957;51.608;6.916;2023-01-29T05:55:09;-0.60;99.90
15713;DHT22;7957;51.608;6.916;2023-01-29T05:57:36;-0.50;99.90
15713;DHT22;7957;51.608;6.916;2023-01-29T06:00:03;-0.50;99.90
15713;DHT22;7957;51.608;6.916;2023-01-29T06:02:30;-0.50;99.90
15713;DHT22;7957;51.608;6.916;2023-01-29T06:04:57;-0.50;99.90
15713;DHT22;7957;51.608;6.916;2023-01-29T06:07:26;-0.50;99.90
15713;DHT22;7957;51.608;6.916;2023-01-29T06:09:53;-0.50;99.90
15713;DHT22;7957;51.608;6.916;2023-01-29T06:12:20;-0.40;99.90
15713;DHT22;7957;51.608;6.916;2023-01-29T06:14:47;-0.50;99.90
15713;DHT22;7957;51.608;6.916;2023-01-29T06:17:14;-0.50;99.90
15713;DHT22;7957;51.608;6.916;2023-01-29T06:19:41;-0.50;99.90
15713;DHT22;7957;51.608;6.916;2023-01-29T06:22:08;-0.40;99.90
15713;DHT22;7957;51.608;6.916;2023-01-29T06:24:36;-0.40;99.90
15713;DHT22;7957;51.608;6.916;2023-01-29T06:27:03;-0.40;99.90
15713;DHT22;7957;51.608;6.916;2023-01-29T06:29:30;-0.40;99.90
15713;DHT22;7957;51.608;6.916;2023-01-29T06:31:57;-0.40;99.90
15713;DHT22;7957;51.608;6.916;2023-01-29T06:34:24;-0.40;99.90
15713;DHT22;7957;51.608;6.916;2023-01-29T06:36:51;-0.40;99.90
15713;DHT22;7957;51.608;6.916;2023-01-29T06:39:18;-0.40;99.90
15713;DHT22;7957;51.608;6.916;2023-01-29T06:41:46;-0.40;99.90
15713;DHT22;7957;51.608;6.916;2023-01-29T06:44:13;-0.40;99.90
15713;DHT22;7957;51.608;6.916;2023-01-29T06:46:40;-0.40;99.90
15713;DHT22;7957;51.608;6.916;2023-01-29T06:49:07;-0.30;99.90
15713;DHT22;7957;51.608;6.916;2023-01-29T06:51:34;-0.40;99.90
15713;DHT22;7957;51.608;6.916;2023-01-29T06:54:01;-0.30;99.90
15713;DHT22;7957;51.608;6.916;2023-01-29T06:56:28;-0.30;99.90
15713;DHT22;7957;51.608;6.916;2023-01-29T06:58:56;-0.40;99.90
15713;DHT22;7957;51.608;6.916;2023-01-29T07:01:24;-0.40;99.90
15713;DHT22;7957;51.608;6.916;2023-01-29T07:03:51;-0.40;99.90
15713;DHT22;7957;51.608;6.916;2023-01-29T07:06:18;-0.40;99.90
15713;DHT22;7957;51.608;6.916;2023-01-29T07:08:45;-0.30;99.90
15713;DHT22;7957;51.608;6.916;2023-01-29T07:11:12;-0.40;99.90
15713;DHT22;7957;51.608;6.916;2023-01-29T07:13:39;-0.30;99.90
15713;DHT22;7957;51.608;6.916;2023-01-29T07:16:08;-0.30;99.90
15713;DHT22;7957;51.608;6.916;2023-01-29T07:18:35;-0.30;99.90
15713;DHT22;7957;51.608;6.916;2023-01-29T07:21:04;-0.30;99.90
15713;DHT22;7957;51.608;6.916;2023-01-29T07:23:32;-0.30;99.90
15713;DHT22;7957;51.608;6.916;2023-01-29T07:26:00;-0.30;99.90
15713;DHT22;7957;51.608;6.916;2023-01-29T07:28:28;-0.30;99.90
15713;DHT22;7957;51.608;6.916;2023-01-29T07:30:56;-0.30;99.90
15713;DHT22;7957;51.608;6.916;2023-01-29T07:33:24;-0.30;99.90
15713;DHT22;7957;51.608;6.916;2023-01-29T07:35:52;-0.30;99.90
15713;DHT22;7957;51.608;6.916;2023-01-29T07:38:19;-0.20;99.90
15713;DHT22;7957;51.608;6.916;2023-01-29T07:40:46;-0.20;99.90
15713;DHT22;7957;51.608;6.916;2023-01-29T07:43:13;-0.20;99.90
15713;DHT22;7957;51.608;6.916;2023-01-29T07:45:40;-0.20;99.90
15713;DHT22;7957;51.608;6.916;2023-01-29T07:48:10;-0.20;99.90
15713;DHT22;7957;51.608;6.916;2023-01-29T07:50:40;-0.20;99.90
15713;DHT22;7957;51.608;6.916;2023-01-29T07:53:11;-0.30;99.90
15713;DHT22;7957;51.608;6.916;2023-01-29T07:55:39;-0.20;99.90
15713;DHT22;7957;51.608;6.916;2023-01-29T07:58:06;-0.20;99.90
15713;DHT22;7957;51.608;6.916;2023-01-29T08:00:32;-0.20;99.90
15713;DHT22;7957;51.608;6.916;2023-01-29T08:03:04;-0.20;99.90
15713;DHT22;7957;51.608;6.916;2023-01-29T08:05:32;-0.20;99.90
15713;DHT22;7957;51.608;6.916;2023-01-29T08:08:01;-0.20;99.90
15713;DHT22;7957;51.608;6.916;2023-01-29T08:10:28;-0.20;99.90
15713;DHT22;7957;51.608;6.916;2023-01-29T08:12:55;-0.10;99.90
15713;DHT22;7957;51.608;6.916;2023-01-29T08:15:23;-0.10;99.90
15713;DHT22;7957;51.608;6.916;2023-01-29T08:17:50;-0.10;99.90
15713;DHT22;7957;51.608;6.916;2023-01-29T08:20:18;0.00;99.90
15713;DHT22;7957;51.608;6.916;2023-01-29T08:22:45;0.00;99.90
15713;DHT22;7957;51.608;6.916;2023-01-29T08:25:14;-0.10;99.90
15713;DHT22;7957;51.608;6.916;2023-01-29T08:27:41;0.00;99.90
15713;DHT22;7957;51.608;6.916;2023-01-29T08:30:10;0.00;99.90
15713;DHT22;7957;51.608;6.916;2023-01-29T08:32:37;-0.10;99.90
15713;DHT22;7957;51.608;6.916;2023-01-29T08:35:04;0.00;99.90
15713;DHT22;7957;51.608;6.916;2023-01-29T08:37:31;0.00;99.90
15713;DHT22;7957;51.608;6.916;2023-01-29T08:39:58;0.00;99.90
15713;DHT22;7957;51.608;6.916;2023-01-29T08:42:27;0.00;99.90
15713;DHT22;7957;51.608;6.916;2023-01-29T08:44:54;0.00;99.90
15713;DHT22;7957;51.608;6.916;2023-01-29T08:47:20;0.00;99.90
15713;DHT22;7957;51.608;6.916;2023-01-29T08:49:47;0.00;99.90
15713;DHT22;7957;51.608;6.916;2023-01-29T08:52:14;0.10;99.90
15713;DHT22;7957;51.608;6.916;2023-01-29T08:54:41;0.10;99.90
15713;DHT22;7957;51.608;6.916;2023-01-29T08:57:08;0.00;99.90
15713;DHT22;7957;51.608;6.916;2023-01-29T08:59:36;0.10;99.90
15713;DHT22;7957;51.608;6.916;2023-01-29T09:02:04;0.10;99.90
15713;DHT22;7957;51.608;6.916;2023-01-29T09:04:30;0.10;99.90
15713;DHT22;7957;51.608;6.916;2023-01-29T09:06:57;0.20;99.90
15713;DHT22;7957;51.608;6.916;2023-01-29T09:09:24;0.20;99.90
15713;DHT22;7957;51.608;6.916;2023-01-29T09:11:51;0.10;99.90
15713;DHT22;7957;51.608;6.916;2023-01-29T09:14:18;0.10;99.90
15713;DHT22;7957;51.608;6.916;2023-01-29T09:16:47;0.10;99.90
15713;DHT22;7957;51.608;6.916;2023-01-29T09:19:14;0.20;99.90
15713;DHT22;7957;51.608;6.916;2023-01-29T09:21:41;0.20;99.90
15713;DHT22;7957;51.608;6.916;2023-01-29T09:24:08;0.20;99.90
15713;DHT22;7957;51.608;6.916;2023-01-29T09:26:35;0.20;99.90
15713;DHT22;7957;51.608;6.916;2023-01-29T09:29:04;0.20;99.90
15713;DHT22;7957;51.608;6.916;2023-01-29T09:31:30;0.20;99.90
15713;DHT22;7957;51.608;6.916;2023-01-29T09:33:59;0.20;99.90
15713;DHT22;7957;51.608;6.916;2023-01-29T09:36:26;0.20;99.90
15713;DHT22;7957;51.608;6.916;2023-01-29T09:38:53;0.20;99.90
15713;DHT22;7957;51.608;6.916;2023-01-29T09:41:32;0.20;99.90
15713;DHT22;7957;51.608;6.916;2023-01-29T09:44:03;0.30;99.90
15713;DHT22;7957;51.608;6.916;2023-01-29T09:46:38;0.30;99.90
15713;DHT22;7957;51.608;6.916;2023-01-29T09:49:11;0.30;99.90
15713;DHT22;7957;51.608;6.916;2023-01-29T09:51:42;0.30;99.90
15713;DHT22;7957;51.608;6.916;2023-01-29T09:54:17;0.30;99.90
15713;DHT22;7957;51.608;6.916;2023-01-29T09:56:46;0.30;99.90
15713;DHT22;7957;51.608;6.916;2023-01-29T09:59:16;0.30;99.90
15713;DHT22;7957;51.608;6.916;2023-01-29T10:01:52;0.30;99.90
15713;DHT22;7957;51.608;6.916;2023-01-29T10:04:50;0.30;99.90
15713;DHT22;7957;51.608;6.916;2023-01-29T10:07:43;0.40;99.90
15713;DHT22;7957;51.608;6.916;2023-01-29T10:10:35;0.40;99.90
15713;DHT22;7957;51.608;6.916;2023-01-29T10:13:13;0.50;99.90
15713;DHT22;7957;51.608;6.916;2023-01-29T10:15:49;0.40;99.90
15713;DHT22;7957;51.608;6.916;2023-01-29T10:21:48;0.50;99.90
15713;DHT22;7957;51.608;6.916;2023-01-29T10:24:25;0.50;99.90
15713;DHT22;7957;51.608;6.916;2023-01-29T10:26:56;0.50;99.90
15713;DHT22;7957;51.608;6.916;2023-01-29T10:29:24;0.50;99.90
15713;DHT22;7957;51.608;6.916;2023-01-29T10:31:55;0.60;99.90
15713;DHT22;7957;51.608;6.916;2023-01-29T10:34:28;0.50;99.90
15713;DHT22;7957;51.608;6.916;2023-01-29T10:36:58;0.60;99.90
15713;DHT22;7957;51.608;6.916;2023-01-29T10:39:26;0.60;99.90
15713;DHT22;7957;51.608;6.916;2023-01-29T10:42:12;0.60;99.90
15713;DHT22;7957;51.608;6.916;2023-01-29T10:44:56;0.60;99.90
15713;DHT22;7957;51.608;6.916;2023-01-29T10:47:53;0.60;99.90
15713;DHT22;7957;51.608;6.916;2023-01-29T10:50:38;0.60;99.90
15713;DHT22;7957;51.608;6.916;2023-01-29T10:53:29;0.60;99.90
15713;DHT22;7957;51.608;6.916;2023-01-29T10:56:10;0.60;99.90
15713;DHT22;7957;51.608;6.916;2023-01-29T10:58:43;0.70;99.90
15713;DHT22;7957;51.608;6.916;2023-01-29T11:01:12;0.70;99.90
15713;DHT22;7957;51.608;6.916;2023-01-29T11:03:39;0.70;99.90
15713;DHT22;7957;51.608;6.916;2023-01-29T11:06:14;0.70;99.90
15713;DHT22;7957;51.608;6.916;2023-01-29T11:08:51;0.70;99.90
15713;DHT22;7957;51.608;6.916;2023-01-29T11:11:20;0.70;99.90
15713;DHT22;7957;51.608;6.916;2023-01-29T11:13:52;0.70;99.90
15713;DHT22;7957;51.608;6.916;2023-01-29T11:16:21;0.70;99.90
15713;DHT22;7957;51.608;6.916;2023-01-29T11:18:50;0.70;99.90
15713;DHT22;7957;51.608;6.916;2023-01-29T11:21:18;0.70;99.90
15713;DHT22;7957;51.608;6.916;2023-01-29T11:23:47;0.80;99.90
15713;DHT22;7957;51.608;6.916;2023-01-29T11:26:18;0.80;99.90
15713;DHT22;7957;51.608;6.916;2023-01-29T11:31:56;0.80;99.90
15713;DHT22;7957;51.608;6.916;2023-01-29T11:34:24;0.80;99.90
15713;DHT22;7957;51.608;6.916;2023-01-29T11:36:58;0.80;99.90
15713;DHT22;7957;51.608;6.916;2023-01-29T11:39:30;0.80;99.90
15713;DHT22;7957;51.608;6.916;2023-01-29T11:42:18;0.90;99.90
15713;DHT22;7957;51.608;6.916;2023-01-29T11:44:45;0.90;99.90
15713;DHT22;7957;51.608;6.916;2023-01-29T11:47:19;0.90;99.90
15713;DHT22;7957;51.608;6.916;2023-01-29T11:49:49;0.90;99.90
15713;DHT22;7957;51.608;6.916;2023-01-29T11:52:22;0.90;99.90
15713;DHT22;7957;51.608;6.916;2023-01-29T11:54:55;0.90;99.90
15713;DHT22;7957;51.608;6.916;2023-01-29T11:57:31;0.90;99.90
15713;DHT22;7957;51.608;6.916;2023-01-29T12:00:04;1.00;99.90
15713;DHT22;7957;51.608;6.916;2023-01-29T12:02:36;1.00;99.90
15713;DHT22;7957;51.608;6.916;2023-01-29T12:05:19;1.00;99.90
15713;DHT22;7957;51.608;6.916;2023-01-29T12:07:51;1.00;99.90
15713;DHT22;7957;51.608;6.916;2023-01-29T12:10:35;1.00;99.90
15713;DHT22;7957;51.608;6.916;2023-01-29T12:13:08;1.00;99.90
15713;DHT22;7957;51.608;6.916;2023-01-29T12:15:46;1.00;99.90
15713;DHT22;7957;51.608;6.916;2023-01-29T12:18:21;1.10;99.90
15713;DHT22;7957;51.608;6.916;2023-01-29T12:20:51;1.10;99.90
15713;DHT22;7957;51.608;6.916;2023-01-29T12:23:26;1.10;99.90
15713;DHT22;7957;51.608;6.916;2023-01-29T12:26:05;1.10;99.90
15713;DHT22;7957;51.608;6.916;2023-01-29T12:28:41;1.10;99.90
15713;DHT22;7957;51.608;6.916;2023-01-29T12:31:25;1.10;99.90
15713;DHT22;7957;51.608;6.916;2023-01-29T12:33:59;1.20;99.90
15713;DHT22;7957;51.608;6.916;2023-01-29T12:36:32;1.20;99.90
15713;DHT22;7957;51.608;6.916;2023-01-29T12:39:16;1.20;99.90
15713;DHT22;7957;51.608;6.916;2023-01-29T12:41:49;1.20;99.90
15713;DHT22;7957;51.608;6.916;2023-01-29T12:44:20;1.20;99.90
15713;DHT22;7957;51.608;6.916;2023-01-29T12:46:55;1.30;99.90
15713;DHT22;7957;51.608;6.916;2023-01-29T12:49:27;1.30;99.90
15713;DHT22;7957;51.608;6.916;2023-01-29T12:52:01;1.30;99.90
15713;DHT22;7957;51.608;6.916;2023-01-29T12:54:37;1.40;99.90
15713;DHT22;7957;51.608;6.916;2023-01-29T12:57:17;1.40;99.90
15713;DHT22;7957;51.608;6.916;2023-01-29T12:59:48;1.40;99.90
15713;DHT22;7957;51.608;6.916;2023-01-29T13:02:29;1.40;99.90
15713;DHT22;7957;51.608;6.916;2023-01-29T13:05:01;1.40;99.90
15713;DHT22;7957;51.608;6.916;2023-01-29T13:07:38;1.50;99.90
15713;DHT22;7957;51.608;6.916;2023-01-29T13:10:13;1.50;99.90
15713;DHT22;7957;51.608;6.916;2023-01-29T13:12:52;1.50;99.90
15713;DHT22;7957;51.608;6.916;2023-01-29T13:15:27;1.50;99.90
15713;DHT22;7957;51.608;6.916;2023-01-29T13:18:06;1.50;99.90
15713;DHT22;7957;51.608;6.916;2023-01-29T13:20:38;1.50;99.90
15713;DHT22;7957;51.608;6.916;2023-01-29T13:23:14;1.50;99.90
15713;DHT22;7957;51.608;6.916;2023-01-29T13:25:43;1.50;99.90
15713;DHT22;7957;51.608;6.916;2023-01-29T13:28:25;1.50;99.90
15713;DHT22;7957;51.608;6.916;2023-01-29T13:31:20;1.50;99.90
15713;DHT22;7957;51.608;6.916;2023-01-29T13:34:05;1.50;99.90
15713;DHT22;7957;51.608;6.916;2023-01-29T13:36:43;1.50;99.90
15713;DHT22;7957;51.608;6.916;2023-01-29T13:39:19;1.50;99.90
15713;DHT22;7957;51.608;6.916;2023-01-29T13:41:50;1.50;99.90
15713;DHT22;7957;51.608;6.916;2023-01-29T13:44:21;1.50;99.90
15713;DHT22;7957;51.608;6.916;2023-01-29T13:46:53;1.50;99.90
15713;DHT22;7957;51.608;6.916;2023-01-29T13:49:35;1.50;99.90
15713;DHT22;7957;51.608;6.916;2023-01-29T13:52:23;1.50;99.90
15713;DHT22;7957;51.608;6.916;2023-01-29T13:54:56;1.50;99.90
15713;DHT22;7957;51.608;6.916;2023-01-29T14:00:56;1.50;99.90
15713;DHT22;7957;51.608;6.916;2023-01-29T14:03:41;1.50;99.90
15713;DHT22;7957;51.608;6.916;2023-01-29T14:06:08;1.50;99.90
15713;DHT22;7957;51.608;6.916;2023-01-29T14:08:38;1.50;99.90
15713;DHT22;7957;51.608;6.916;2023-01-29T14:11:34;1.50;99.90
15713;DHT22;7957;51.608;6.916;2023-01-29T14:17:11;1.50;99.90
15713;DHT22;7957;51.608;6.916;2023-01-29T14:19:45;1.50;99.90
15713;DHT22;7957;51.608;6.916;2023-01-29T14:22:19;1.50;99.90
15713;DHT22;7957;51.608;6.916;2023-01-29T14:24:47;1.40;99.90
15713;DHT22;7957;51.608;6.916;2023-01-29T14:27:20;1.50;99.90
15713;DHT22;7957;51.608;6.916;2023-01-29T14:29:49;1.40;99.90
15713;DHT22;7957;51.608;6.916;2023-01-29T14:32:24;1.40;99.90
15713;DHT22;7957;51.608;6.916;2023-01-29T14:34:55;1.40;99.90
15713;DHT22;7957;51.608;6.916;2023-01-29T14:37:30;1.40;99.90
15713;DHT22;7957;51.608;6.916;2023-01-29T14:40:05;1.40;99.90
15713;DHT22;7957;51.608;6.916;2023-01-29T14:42:36;1.40;99.90
15713;DHT22;7957;51.608;6.916;2023-01-29T14:45:22;1.40;99.90
15713;DHT22;7957;51.608;6.916;2023-01-29T14:50:58;1.40;99.90
15713;DHT22;7957;51.608;6.916;2023-01-29T14:53:44;1.40;99.90
15713;DHT22;7957;51.608;6.916;2023-01-29T14:56:14;1.40;99.90
15713;DHT22;7957;51.608;6.916;2023-01-29T14:58:45;1.40;99.90
15713;DHT22;7957;51.608;6.916;2023-01-29T15:01:22;1.40;99.90
15713;DHT22;7957;51.608;6.916;2023-01-29T15:03:51;1.40;99.90
15713;DHT22;7957;51.608;6.916;2023-01-29T15:06:26;1.40;99.90
15713;DHT22;7957;51.608;6.916;2023-01-29T15:08:59;1.40;99.90
15713;DHT22;7957;51.608;6.916;2023-01-29T15:11:33;1.40;99.90
15713;DHT22;7957;51.608;6.916;2023-01-29T15:14:17;1.40;99.90
15713;DHT22;7957;51.608;6.916;2023-01-29T15:16:59;1.40;99.90
15713;DHT22;7957;51.608;6.916;2023-01-29T15:19:33;1.40;99.90
15713;DHT22;7957;51.608;6.916;2023-01-29T15:22:10;1.40;99.90
15713;DHT22;7957;51.608;6.916;2023-01-29T15:24:39;1.40;99.90
15713;DHT22;7957;51.608;6.916;2023-01-29T15:27:11;1.40;99.90
15713;DHT22;7957;51.608;6.916;2023-01-29T15:29:39;1.40;99.90
15713;DHT22;7957;51.608;6.916;2023-01-29T15:32:13;1.40;99.90
15713;DHT22;7957;51.608;6.916;2023-01-29T15:34:41;1.40;99.90
15713;DHT22;7957;51.608;6.916;2023-01-29T15:37:26;1.40;99.90
15713;DHT22;7957;51.608;6.916;2023-01-29T15:39:57;1.40;99.90
15713;DHT22;7957;51.608;6.916;2023-01-29T15:42:29;1.40;99.90
15713;DHT22;7957;51.608;6.916;2023-01-29T15:45:20;1.40;99.90
15713;DHT22;7957;51.608;6.916;2023-01-29T15:47:47;1.40;99.90
15713;DHT22;7957;51.608;6.916;2023-01-29T15:50:14;1.40;99.90
15713;DHT22;7957;51.608;6.916;2023-01-29T15:52:47;1.40;99.90
15713;DHT22;7957;51.608;6.916;2023-01-29T15:55:14;1.40;99.90
15713;DHT22;7957;51.608;6.916;2023-01-29T15:57:42;1.40;99.90
15713;DHT22;7957;51.608;6.916;2023-01-29T16:00:21;1.40;99.90
15713;DHT22;7957;51.608;6.916;2023-01-29T16:02:48;1.40;99.90
15713;DHT22;7957;51.608;6.916;2023-01-29T16:05:17;1.40;99.90
15713;DHT22;7957;51.608;6.916;2023-01-29T16:07:48;1.40;99.90
15713;DHT22;7957;51.608;6.916;2023-01-29T16:10:18;1.40;99.90
15713;DHT22;7957;51.608;6.916;2023-01-29T16:12:46;1.40;99.90
15713;DHT22;7957;51.608;6.916;2023-01-29T16:15:27;1.40;99.90
15713;DHT22;7957;51.608;6.916;2023-01-29T16:17:56;1.40;99.90
15713;DHT22;7957;51.608;6.916;2023-01-29T16:20:33;1.40;99.90
15713;DHT22;7957;51.608;6.916;2023-01-29T16:23:04;1.40;99.90
15713;DHT22;7957;51.608;6.916;2023-01-29T16:25:33;1.40;99.90
15713;DHT22;7957;51.608;6.916;2023-01-29T16:28:03;1.40;99.90
15713;DHT22;7957;51.608;6.916;2023-01-29T16:30:31;1.30;99.90
15713;DHT22;7957;51.608;6.916;2023-01-29T16:33:02;1.40;99.90
15713;DHT22;7957;51.608;6.916;2023-01-29T16:35:30;1.40;99.90
15713;DHT22;7957;51.608;6.916;2023-01-29T16:38:01;1.40;99.90
15713;DHT22;7957;51.608;6.916;2023-01-29T16:40:31;1.40;99.90
15713;DHT22;7957;51.608;6.916;2023-01-29T16:43:43;1.40;99.90
15713;DHT22;7957;51.608;6.916;2023-01-29T16:46:17;1.40;99.90